sensor_id;sensor_type;location;lat;lon;timestamp;P1;durP1;ratioP1;P2;durP2;ratioP2
58302;SDS011;44109;52.398;7.024;2023-09-12T00:01:14;13.75;;;8.02;;
58302;SDS011;44109;52.398;7.024;2023-09-12T00:03:41;16.90;;;9.68;;
58302;SDS011;44109;52.398;7.024;2023-09-12T00:06:10;13.98;;;7.43;;
58302;SDS011;44109;52.398;7.024;2023-09-12T00:08:38;12.75;;;7.15;;
58302;SDS011;44109;52.398;7.024;2023-09-12T00:11:06;13.25;;;7.32;;
58302;SDS011;44109;52.398;7.024;2023-09-12T00:13:37;15.82;;;9.32;;
58302;SDS011;44109;52.398;7.024;2023-09-12T00:16:06;18.20;;;8.20;;
58302;SDS011;44109;52.398;7.024;2023-09-12T00:18:35;15.68;;;9.43;;
58302;SDS011;44109;52.398;7.024;2023-09-12T00:21:03;16.83;;;8.60;;
58302;SDS011;44109;52.398;7.024;2023-09-12T00:23:31;10.63;;;6.43;;
58302;SDS011;44109;52.398;7.024;2023-09-12T00:25:59;15.05;;;7.43;;
58302;SDS011;44109;52.398;7.024;2023-09-12T00:28:26;17.08;;;8.70;;
58302;SDS011;44109;52.398;7.024;2023-09-12T00:30:54;20.23;;;9.77;;
58302;SDS011;44109;52.398;7.024;2023-09-12T00:33:22;17.05;;;8.63;;
58302;SDS011;44109;52.398;7.024;2023-09-12T00:35:49;19.48;;;11.10;;
58302;SDS011;44109;52.398;7.024;2023-09-12T00:38:17;18.35;;;9.38;;
58302;SDS011;44109;52.398;7.024;2023-09-12T00:40:46;14.32;;;7.20;;
58302;SDS011;44109;52.398;7.024;2023-09-12T00:43:14;16.17;;;10.05;;
58302;SDS011;44109;52.398;7.024;2023-09-12T00:45:42;22.88;;;13.13;;
58302;SDS011;44109;52.398;7.024;2023-09-12T00:48:10;19.63;;;10.90;;
58302;SDS011;44109;52.398;7.024;2023-09-12T00:50:40;18.92;;;10.20;;
58302;SDS011;44109;52.398;7.024;2023-09-12T00:53:10;25.48;;;13.23;;
58302;SDS011;44109;52.398;7.024;2023-09-12T00:55:38;22.27;;;11.30;;
58302;SDS011;44109;52.398;7.024;2023-09-12T00:58:17;23.60;;;11.38;;
58302;SDS011;44109;52.398;7.024;2023-09-12T01:00:45;20.02;;;10.80;;
58302;SDS011;44109;52.398;7.024;2023-09-12T01:03:13;19.30;;;11.10;;
58302;SDS011;44109;52.398;7.024;2023-09-12T01:05:41;21.17;;;11.70;;
58302;SDS011;44109;52.398;7.024;2023-09-12T01:08:10;14.52;;;9.88;;
58302;SDS011;44109;52.398;7.024;2023-09-12T01:10:37;20.50;;;11.73;;
58302;SDS011;44109;52.398;7.024;2023-09-12T01:13:06;23.65;;;12.25;;
58302;SDS011;44109;52.398;7.024;2023-09-12T01:15:34;21.58;;;12.63;;
58302;SDS011;44109;52.398;7.024;2023-09-12T01:18:02;21.05;;;10.32;;
58302;SDS011;44109;52.398;7.024;2023-09-12T01:20:31;19.48;;;10.50;;
58302;SDS011;44109;52.398;7.024;2023-09-12T01:23:08;18.63;;;10.60;;
58302;SDS011;44109;52.398;7.024;2023-09-12T01:29:03;24.25;;;12.38;;
58302;SDS011;44109;52.398;7.024;2023-09-12T01:31:34;18.67;;;10.00;;
58302;SDS011;44109;52.398;7.024;2023-09-12T01:34:08;19.75;;;10.40;;
58302;SDS011;44109;52.398;7.024;2023-09-12T01:36:36;30.20;;;15.90;;
58302;SDS011;44109;52.398;7.024;2023-09-12T01:39:04;21.42;;;11.25;;
58302;SDS011;44109;52.398;7.024;2023-09-12T01:41:34;21.27;;;11.60;;
58302;SDS011;44109;52.398;7.024;2023-09-12T01:44:09;18.67;;;10.18;;
58302;SDS011;44109;52.398;7.024;2023-09-12T01:46:39;16.63;;;9.35;;
58302;SDS011;44109;52.398;7.024;2023-09-12T01:49:10;16.45;;;9.82;;
58302;SDS011;44109;52.398;7.024;2023-09-12T01:51:42;20.30;;;11.43;;
58302;SDS011;44109;52.398;7.024;2023-09-12T01:54:10;21.58;;;10.65;;
58302;SDS011;44109;52.398;7.024;2023-09-12T01:56:38;19.05;;;10.52;;
58302;SDS011;44109;52.398;7.024;2023-09-12T01:59:09;16.08;;;8.80;;
58302;SDS011;44109;52.398;7.024;2023-09-12T02:01:38;18.67;;;10.40;;
58302;SDS011;44109;52.398;7.024;2023-09-12T02:04:07;21.17;;;10.98;;
58302;SDS011;44109;52.398;7.024;2023-09-12T02:06:35;15.50;;;8.18;;
58302;SDS011;44109;52.398;7.024;2023-09-12T02:09:03;15.10;;;8.45;;
58302;SDS011;44109;52.398;7.024;2023-09-12T02:11:30;15.70;;;10.55;;
58302;SDS011;44109;52.398;7.024;2023-09-12T02:13:58;18.95;;;9.70;;
58302;SDS011;44109;52.398;7.024;2023-09-12T02:16:27;23.08;;;10.73;;
58302;SDS011;44109;52.398;7.024;2023-09-12T02:18:55;17.50;;;9.82;;
58302;SDS011;44109;52.398;7.024;2023-09-12T02:21:22;16.67;;;8.95;;
58302;SDS011;44109;52.398;7.024;2023-09-12T02:23:50;16.58;;;8.82;;
58302;SDS011;44109;52.398;7.024;2023-09-12T02:26:17;15.13;;;7.60;;
58302;SDS011;44109;52.398;7.024;2023-09-12T02:28:45;18.05;;;8.85;;
58302;SDS011;44109;52.398;7.024;2023-09-12T02:31:13;19.58;;;10.18;;
58302;SDS011;44109;52.398;7.024;2023-09-12T02:33:42;14.98;;;8.77;;
58302;SDS011;44109;52.398;7.024;2023-09-12T02:36:09;13.82;;;8.73;;
58302;SDS011;44109;52.398;7.024;2023-09-12T02:38:37;16.08;;;6.97;;
58302;SDS011;44109;52.398;7.024;2023-09-12T02:41:04;14.80;;;7.82;;
58302;SDS011;44109;52.398;7.024;2023-09-12T02:43:32;17.65;;;8.73;;
58302;SDS011;44109;52.398;7.024;2023-09-12T02:46:00;17.15;;;8.57;;
58302;SDS011;44109;52.398;7.024;2023-09-12T02:48:27;16.50;;;8.40;;
58302;SDS011;44109;52.398;7.024;2023-09-12T02:50:56;14.48;;;7.78;;
58302;SDS011;44109;52.398;7.024;2023-09-12T02:53:24;15.00;;;7.65;;
58302;SDS011;44109;52.398;7.024;2023-09-12T02:55:52;11.35;;;7.10;;
58302;SDS011;44109;52.398;7.024;2023-09-12T02:58:20;20.13;;;9.50;;
58302;SDS011;44109;52.398;7.024;2023-09-12T03:00:47;14.35;;;7.00;;
58302;SDS011;44109;52.398;7.024;2023-09-12T03:03:20;13.40;;;8.50;;
58302;SDS011;44109;52.398;7.024;2023-09-12T03:05:47;14.93;;;8.35;;
58302;SDS011;44109;52.398;7.024;2023-09-12T03:08:25;11.73;;;7.55;;
58302;SDS011;44109;52.398;7.024;2023-09-12T03:10:54;12.32;;;7.07;;
58302;SDS011;44109;52.398;7.024;2023-09-12T03:15:52;13.25;;;6.95;;
58302;SDS011;44109;52.398;7.024;2023-09-12T03:18:19;12.43;;;7.05;;
58302;SDS011;44109;52.398;7.024;2023-09-12T03:20:47;15.20;;;8.27;;
58302;SDS011;44109;52.398;7.024;2023-09-12T03:23:16;20.25;;;10.15;;
58302;SDS011;44109;52.398;7.024;2023-09-12T03:25:44;18.63;;;9.00;;
58302;SDS011;44109;52.398;7.024;2023-09-12T03:28:11;16.80;;;9.80;;
58302;SDS011;44109;52.398;7.024;2023-09-12T03:30:39;16.63;;;8.05;;
58302;SDS011;44109;52.398;7.024;2023-09-12T03:33:07;13.98;;;7.45;;
58302;SDS011;44109;52.398;7.024;2023-09-12T03:35:34;12.40;;;7.00;;
58302;SDS011;44109;52.398;7.024;2023-09-12T03:38:03;10.32;;;7.03;;
58302;SDS011;44109;52.398;7.024;2023-09-12T03:40:32;11.38;;;7.07;;
58302;SDS011;44109;52.398;7.024;2023-09-12T03:43:00;13.10;;;6.90;;
58302;SDS011;44109;52.398;7.024;2023-09-12T03:45:28;10.32;;;6.32;;
58302;SDS011;44109;52.398;7.024;2023-09-12T03:47:55;15.23;;;6.95;;
58302;SDS011;44109;52.398;7.024;2023-09-12T03:50:23;12.35;;;6.22;;
58302;SDS011;44109;52.398;7.024;2023-09-12T03:52:50;10.35;;;6.63;;
58302;SDS011;44109;52.398;7.024;2023-09-12T03:55:18;9.98;;;6.30;;
58302;SDS011;44109;52.398;7.024;2023-09-12T03:57:47;12.10;;;5.93;;
58302;SDS011;44109;52.398;7.024;2023-09-12T04:00:15;10.45;;;5.85;;
58302;SDS011;44109;52.398;7.024;2023-09-12T04:02:43;11.38;;;6.10;;
58302;SDS011;44109;52.398;7.024;2023-09-12T04:05:10;15.00;;;6.55;;
58302;SDS011;44109;52.398;7.024;2023-09-12T04:07:38;11.27;;;6.22;;
58302;SDS011;44109;52.398;7.024;2023-09-12T04:10:06;13.95;;;6.53;;
58302;SDS011;44109;52.398;7.024;2023-09-12T04:12:34;10.13;;;6.03;;
58302;SDS011;44109;52.398;7.024;2023-09-12T04:15:03;11.27;;;6.63;;
58302;SDS011;44109;52.398;7.024;2023-09-12T04:17:33;20.27;;;10.40;;
58302;SDS011;44109;52.398;7.024;2023-09-12T04:20:00;13.98;;;9.10;;
58302;SDS011;44109;52.398;7.024;2023-09-12T04:22:29;21.45;;;10.45;;
58302;SDS011;44109;52.398;7.024;2023-09-12T04:24:57;15.40;;;8.90;;
58302;SDS011;44109;52.398;7.024;2023-09-12T04:27:24;21.30;;;12.52;;
58302;SDS011;44109;52.398;7.024;2023-09-12T04:29:52;15.77;;;8.75;;
58302;SDS011;44109;52.398;7.024;2023-09-12T04:32:21;14.55;;;8.52;;
58302;SDS011;44109;52.398;7.024;2023-09-12T04:34:49;12.18;;;7.90;;
58302;SDS011;44109;52.398;7.024;2023-09-12T04:37:17;17.67;;;9.13;;
58302;SDS011;44109;52.398;7.024;2023-09-12T04:39:45;16.35;;;8.20;;
58302;SDS011;44109;52.398;7.024;2023-09-12T04:42:12;12.07;;;7.13;;
58302;SDS011;44109;52.398;7.024;2023-09-12T04:44:40;13.98;;;7.43;;
58302;SDS011;44109;52.398;7.024;2023-09-12T04:47:09;10.85;;;7.28;;
58302;SDS011;44109;52.398;7.024;2023-09-12T04:49:38;14.07;;;8.07;;
58302;SDS011;44109;52.398;7.024;2023-09-12T04:52:06;15.15;;;7.53;;
58302;SDS011;44109;52.398;7.024;2023-09-12T04:54:33;18.13;;;8.05;;
58302;SDS011;44109;52.398;7.024;2023-09-12T04:57:02;13.88;;;8.65;;
58302;SDS011;44109;52.398;7.024;2023-09-12T04:59:30;15.57;;;9.02;;
58302;SDS011;44109;52.398;7.024;2023-09-12T05:01:58;17.20;;;8.77;;
58302;SDS011;44109;52.398;7.024;2023-09-12T05:04:26;14.10;;;8.40;;
58302;SDS011;44109;52.398;7.024;2023-09-12T05:06:55;14.25;;;8.07;;
58302;SDS011;44109;52.398;7.024;2023-09-12T05:09:22;16.63;;;8.98;;
58302;SDS011;44109;52.398;7.024;2023-09-12T05:11:50;11.05;;;6.80;;
58302;SDS011;44109;52.398;7.024;2023-09-12T05:14:18;13.70;;;8.68;;
58302;SDS011;44109;52.398;7.024;2023-09-12T05:16:45;12.68;;;8.00;;
58302;SDS011;44109;52.398;7.024;2023-09-12T05:19:13;13.88;;;7.82;;
58302;SDS011;44109;52.398;7.024;2023-09-12T05:21:41;11.50;;;7.82;;
58302;SDS011;44109;52.398;7.024;2023-09-12T05:24:10;12.57;;;7.55;;
58302;SDS011;44109;52.398;7.024;2023-09-12T05:26:37;12.13;;;6.32;;
58302;SDS011;44109;52.398;7.024;2023-09-12T05:29:05;11.65;;;6.95;;
58302;SDS011;44109;52.398;7.024;2023-09-12T05:31:32;13.23;;;8.38;;
58302;SDS011;44109;52.398;7.024;2023-09-12T05:34:00;15.73;;;8.73;;
58302;SDS011;44109;52.398;7.024;2023-09-12T05:36:28;11.43;;;7.53;;
58302;SDS011;44109;52.398;7.024;2023-09-12T05:38:55;12.60;;;7.57;;
58302;SDS011;44109;52.398;7.024;2023-09-12T05:41:24;12.80;;;7.75;;
58302;SDS011;44109;52.398;7.024;2023-09-12T05:43:51;11.88;;;6.95;;
58302;SDS011;44109;52.398;7.024;2023-09-12T05:46:19;14.15;;;6.75;;
58302;SDS011;44109;52.398;7.024;2023-09-12T05:48:46;16.10;;;8.38;;
58302;SDS011;44109;52.398;7.024;2023-09-12T05:51:14;16.00;;;8.70;;
58302;SDS011;44109;52.398;7.024;2023-09-12T05:53:41;15.50;;;7.50;;
58302;SDS011;44109;52.398;7.024;2023-09-12T05:56:09;17.17;;;9.40;;
58302;SDS011;44109;52.398;7.024;2023-09-12T05:58:38;16.80;;;10.00;;
58302;SDS011;44109;52.398;7.024;2023-09-12T06:01:08;14.93;;;8.27;;
58302;SDS011;44109;52.398;7.024;2023-09-12T06:03:36;17.25;;;8.93;;
58302;SDS011;44109;52.398;7.024;2023-09-12T06:06:04;14.15;;;8.38;;
58302;SDS011;44109;52.398;7.024;2023-09-12T06:08:31;12.75;;;8.05;;
58302;SDS011;44109;52.398;7.024;2023-09-12T06:10:59;16.58;;;7.88;;
58302;SDS011;44109;52.398;7.024;2023-09-12T06:13:27;14.27;;;7.63;;
58302;SDS011;44109;52.398;7.024;2023-09-12T06:15:56;14.95;;;8.20;;
58302;SDS011;44109;52.398;7.024;2023-09-12T06:18:23;15.93;;;7.90;;
58302;SDS011;44109;52.398;7.024;2023-09-12T06:20:54;17.10;;;10.35;;
58302;SDS011;44109;52.398;7.024;2023-09-12T06:23:21;14.32;;;8.48;;
58302;SDS011;44109;52.398;7.024;2023-09-12T06:25:49;17.67;;;9.30;;
58302;SDS011;44109;52.398;7.024;2023-09-12T06:28:24;19.25;;;9.63;;
58302;SDS011;44109;52.398;7.024;2023-09-12T06:30:53;26.50;;;11.38;;
58302;SDS011;44109;52.398;7.024;2023-09-12T06:33:22;20.88;;;11.35;;
58302;SDS011;44109;52.398;7.024;2023-09-12T06:35:50;19.65;;;11.10;;
58302;SDS011;44109;52.398;7.024;2023-09-12T06:38:18;20.75;;;10.32;;
58302;SDS011;44109;52.398;7.024;2023-09-12T06:40:46;17.85;;;10.25;;
58302;SDS011;44109;52.398;7.024;2023-09-12T06:43:14;19.48;;;9.25;;
58302;SDS011;44109;52.398;7.024;2023-09-12T06:45:42;24.67;;;11.77;;
58302;SDS011;44109;52.398;7.024;2023-09-12T06:48:10;22.65;;;10.73;;
58302;SDS011;44109;52.398;7.024;2023-09-12T06:50:39;18.55;;;10.15;;
58302;SDS011;44109;52.398;7.024;2023-09-12T06:53:07;19.90;;;11.18;;
58302;SDS011;44109;52.398;7.024;2023-09-12T06:55:36;18.85;;;10.07;;
58302;SDS011;44109;52.398;7.024;2023-09-12T06:58:03;19.52;;;10.02;;
58302;SDS011;44109;52.398;7.024;2023-09-12T07:00:31;19.60;;;9.52;;
58302;SDS011;44109;52.398;7.024;2023-09-12T07:02:59;20.48;;;11.02;;
58302;SDS011;44109;52.398;7.024;2023-09-12T07:05:26;20.83;;;10.15;;
58302;SDS011;44109;52.398;7.024;2023-09-12T07:07:55;37.42;;;16.90;;
58302;SDS011;44109;52.398;7.024;2023-09-12T07:10:23;37.67;;;17.50;;
58302;SDS011;44109;52.398;7.024;2023-09-12T07:12:50;35.85;;;17.73;;
58302;SDS011;44109;52.398;7.024;2023-09-12T07:15:18;27.77;;;14.57;;
58302;SDS011;44109;52.398;7.024;2023-09-12T07:17:46;34.88;;;16.40;;
58302;SDS011;44109;52.398;7.024;2023-09-12T07:20:14;30.80;;;14.73;;
58302;SDS011;44109;52.398;7.024;2023-09-12T07:22:43;22.95;;;10.48;;
58302;SDS011;44109;52.398;7.024;2023-09-12T07:25:13;22.42;;;11.23;;
58302;SDS011;44109;52.398;7.024;2023-09-12T07:27:41;20.58;;;11.50;;
58302;SDS011;44109;52.398;7.024;2023-09-12T07:30:09;24.33;;;11.30;;
58302;SDS011;44109;52.398;7.024;2023-09-12T07:32:38;21.75;;;12.15;;
58302;SDS011;44109;52.398;7.024;2023-09-12T07:35:05;22.35;;;11.70;;
58302;SDS011;44109;52.398;7.024;2023-09-12T07:37:35;21.83;;;10.35;;
58302;SDS011;44109;52.398;7.024;2023-09-12T07:40:03;22.10;;;10.95;;
58302;SDS011;44109;52.398;7.024;2023-09-12T07:42:36;19.70;;;10.10;;
58302;SDS011;44109;52.398;7.024;2023-09-12T07:45:04;25.80;;;11.90;;
58302;SDS011;44109;52.398;7.024;2023-09-12T07:47:33;21.70;;;11.43;;
58302;SDS011;44109;52.398;7.024;2023-09-12T07:50:01;20.90;;;10.68;;
58302;SDS011;44109;52.398;7.024;2023-09-12T07:52:29;21.58;;;11.73;;
58302;SDS011;44109;52.398;7.024;2023-09-12T07:54:58;19.38;;;11.25;;
58302;SDS011;44109;52.398;7.024;2023-09-12T07:57:27;21.83;;;12.23;;
58302;SDS011;44109;52.398;7.024;2023-09-12T07:59:57;19.52;;;10.65;;
58302;SDS011;44109;52.398;7.024;2023-09-12T08:02:24;19.95;;;10.50;;
58302;SDS011;44109;52.398;7.024;2023-09-12T08:04:52;16.85;;;8.93;;
58302;SDS011;44109;52.398;7.024;2023-09-12T08:07:20;18.70;;;9.70;;
58302;SDS011;44109;52.398;7.024;2023-09-12T08:09:48;21.17;;;9.82;;
58302;SDS011;44109;52.398;7.024;2023-09-12T08:12:17;17.63;;;8.68;;
58302;SDS011;44109;52.398;7.024;2023-09-12T08:14:46;16.50;;;9.18;;
58302;SDS011;44109;52.398;7.024;2023-09-12T08:17:15;16.90;;;8.02;;
58302;SDS011;44109;52.398;7.024;2023-09-12T08:19:43;21.48;;;9.38;;
58302;SDS011;44109;52.398;7.024;2023-09-12T08:22:11;15.73;;;8.27;;
58302;SDS011;44109;52.398;7.024;2023-09-12T08:24:40;15.13;;;8.55;;
58302;SDS011;44109;52.398;7.024;2023-09-12T08:27:07;13.85;;;7.72;;
58302;SDS011;44109;52.398;7.024;2023-09-12T08:29:35;13.80;;;7.85;;
58302;SDS011;44109;52.398;7.024;2023-09-12T08:32:04;18.30;;;8.88;;
58302;SDS011;44109;52.398;7.024;2023-09-12T08:34:33;12.82;;;6.90;;
58302;SDS011;44109;52.398;7.024;2023-09-12T08:37:01;12.90;;;8.35;;
58302;SDS011;44109;52.398;7.024;2023-09-12T08:39:36;13.43;;;8.20;;
58302;SDS011;44109;52.398;7.024;2023-09-12T08:42:09;16.13;;;9.40;;
58302;SDS011;44109;52.398;7.024;2023-09-12T08:44:40;12.77;;;7.50;;
58302;SDS011;44109;52.398;7.024;2023-09-12T08:47:08;19.02;;;10.10;;
58302;SDS011;44109;52.398;7.024;2023-09-12T08:49:39;17.95;;;9.88;;
58302;SDS011;44109;52.398;7.024;2023-09-12T08:52:08;17.70;;;8.70;;
58302;SDS011;44109;52.398;7.024;2023-09-12T08:54:35;16.73;;;10.02;;
58302;SDS011;44109;52.398;7.024;2023-09-12T08:57:03;20.27;;;11.15;;
58302;SDS011;44109;52.398;7.024;2023-09-12T08:59:33;15.90;;;9.55;;
58302;SDS011;44109;52.398;7.024;2023-09-12T09:02:02;18.60;;;9.27;;
58302;SDS011;44109;52.398;7.024;2023-09-12T09:04:35;17.10;;;8.50;;
58302;SDS011;44109;52.398;7.024;2023-09-12T09:09:38;19.55;;;9.88;;
58302;SDS011;44109;52.398;7.024;2023-09-12T09:12:07;17.00;;;10.50;;
58302;SDS011;44109;52.398;7.024;2023-09-12T09:14:36;16.73;;;9.77;;
58302;SDS011;44109;52.398;7.024;2023-09-12T09:17:04;19.33;;;9.32;;
58302;SDS011;44109;52.398;7.024;2023-09-12T09:19:41;14.77;;;8.20;;
58302;SDS011;44109;52.398;7.024;2023-09-12T09:22:10;15.65;;;8.90;;
58302;SDS011;44109;52.398;7.024;2023-09-12T09:24:38;17.20;;;9.38;;
58302;SDS011;44109;52.398;7.024;2023-09-12T09:27:05;16.33;;;9.10;;
58302;SDS011;44109;52.398;7.024;2023-09-12T09:29:45;16.50;;;9.27;;
58302;SDS011;44109;52.398;7.024;2023-09-12T09:32:16;14.43;;;8.98;;
58302;SDS011;44109;52.398;7.024;2023-09-12T09:34:48;16.63;;;8.75;;
58302;SDS011;44109;52.398;7.024;2023-09-12T09:37:16;14.77;;;8.88;;
58302;SDS011;44109;52.398;7.024;2023-09-12T09:39:45;19.83;;;10.68;;
58302;SDS011;44109;52.398;7.024;2023-09-12T09:42:18;19.02;;;9.80;;
58302;SDS011;44109;52.398;7.024;2023-09-12T09:44:46;17.65;;;9.85;;
58302;SDS011;44109;52.398;7.024;2023-09-12T09:47:14;17.70;;;9.82;;
58302;SDS011;44109;52.398;7.024;2023-09-12T09:49:45;16.75;;;8.98;;
58302;SDS011;44109;52.398;7.024;2023-09-12T09:52:14;17.83;;;9.50;;
58302;SDS011;44109;52.398;7.024;2023-09-12T09:54:45;16.50;;;8.98;;
58302;SDS011;44109;52.398;7.024;2023-09-12T09:57:12;20.58;;;9.48;;
58302;SDS011;44109;52.398;7.024;2023-09-12T09:59:40;17.17;;;8.68;;
58302;SDS011;44109;52.398;7.024;2023-09-12T10:02:09;16.55;;;8.35;;
58302;SDS011;44109;52.398;7.024;2023-09-12T10:04:48;14.40;;;8.77;;
58302;SDS011;44109;52.398;7.024;2023-09-12T10:07:19;17.38;;;8.80;;
58302;SDS011;44109;52.398;7.024;2023-09-12T10:09:49;12.77;;;8.15;;
58302;SDS011;44109;52.398;7.024;2023-09-12T10:12:17;13.20;;;7.80;;
58302;SDS011;44109;52.398;7.024;2023-09-12T10:14:45;15.55;;;7.68;;
58302;SDS011;44109;52.398;7.024;2023-09-12T10:17:13;16.08;;;9.43;;
58302;SDS011;44109;52.398;7.024;2023-09-12T10:19:54;20.67;;;8.98;;
58302;SDS011;44109;52.398;7.024;2023-09-12T10:22:30;17.20;;;9.82;;
58302;SDS011;44109;52.398;7.024;2023-09-12T10:25:04;14.57;;;8.48;;
58302;SDS011;44109;52.398;7.024;2023-09-12T10:27:34;13.73;;;7.15;;
58302;SDS011;44109;52.398;7.024;2023-09-12T10:30:02;15.65;;;7.80;;
58302;SDS011;44109;52.398;7.024;2023-09-12T10:32:31;13.80;;;7.78;;
58302;SDS011;44109;52.398;7.024;2023-09-12T10:35:01;12.25;;;7.18;;
58302;SDS011;44109;52.398;7.024;2023-09-12T10:37:31;9.98;;;6.47;;
58302;SDS011;44109;52.398;7.024;2023-09-12T10:40:05;13.18;;;6.65;;
58302;SDS011;44109;52.398;7.024;2023-09-12T10:42:36;14.32;;;7.25;;
58302;SDS011;44109;52.398;7.024;2023-09-12T10:45:06;13.43;;;7.40;;
58302;SDS011;44109;52.398;7.024;2023-09-12T10:47:35;11.43;;;6.80;;
58302;SDS011;44109;52.398;7.024;2023-09-12T10:50:04;9.73;;;5.55;;
58302;SDS011;44109;52.398;7.024;2023-09-12T10:52:35;10.57;;;6.25;;
58302;SDS011;44109;52.398;7.024;2023-09-12T10:55:05;8.18;;;5.72;;
58302;SDS011;44109;52.398;7.024;2023-09-12T10:57:34;7.88;;;5.18;;
58302;SDS011;44109;52.398;7.024;2023-09-12T11:00:22;10.23;;;5.85;;
58302;SDS011;44109;52.398;7.024;2023-09-12T11:02:49;9.23;;;4.82;;
58302;SDS011;44109;52.398;7.024;2023-09-12T11:05:36;11.38;;;5.13;;
58302;SDS011;44109;52.398;7.024;2023-09-12T11:08:20;7.70;;;4.68;;
58302;SDS011;44109;52.398;7.024;2023-09-12T11:13:47;9.73;;;6.50;;
58302;SDS011;44109;52.398;7.024;2023-09-12T11:16:30;12.18;;;6.38;;
58302;SDS011;44109;52.398;7.024;2023-09-12T11:19:13;12.75;;;6.20;;
58302;SDS011;44109;52.398;7.024;2023-09-12T11:21:43;16.17;;;8.38;;
58302;SDS011;44109;52.398;7.024;2023-09-12T11:24:14;11.48;;;5.32;;
58302;SDS011;44109;52.398;7.024;2023-09-12T11:26:52;9.20;;;5.10;;
58302;SDS011;44109;52.398;7.024;2023-09-12T11:29:27;8.57;;;5.63;;
58302;SDS011;44109;52.398;7.024;2023-09-12T11:32:01;9.20;;;4.70;;
58302;SDS011;44109;52.398;7.024;2023-09-12T11:34:31;8.25;;;4.97;;
58302;SDS011;44109;52.398;7.024;2023-09-12T11:37:04;9.77;;;5.25;;
58302;SDS011;44109;52.398;7.024;2023-09-12T11:39:35;9.80;;;5.63;;
58302;SDS011;44109;52.398;7.024;2023-09-12T11:42:07;9.57;;;5.80;;
58302;SDS011;44109;52.398;7.024;2023-09-12T11:44:39;9.32;;;5.20;;
58302;SDS011;44109;52.398;7.024;2023-09-12T11:47:10;9.75;;;5.03;;
58302;SDS011;44109;52.398;7.024;2023-09-12T11:49:39;11.45;;;6.28;;
58302;SDS011;44109;52.398;7.024;2023-09-12T11:52:09;11.05;;;6.25;;
58302;SDS011;44109;52.398;7.024;2023-09-12T11:54:39;10.20;;;5.90;;
58302;SDS011;44109;52.398;7.024;2023-09-12T11:57:08;8.80;;;5.22;;
58302;SDS011;44109;52.398;7.024;2023-09-12T11:59:39;9.30;;;5.00;;
58302;SDS011;44109;52.398;7.024;2023-09-12T12:02:11;9.05;;;4.00;;
58302;SDS011;44109;52.398;7.024;2023-09-12T12:04:38;7.22;;;4.22;;
58302;SDS011;44109;52.398;7.024;2023-09-12T12:07:06;6.97;;;4.45;;
58302;SDS011;44109;52.398;7.024;2023-09-12T12:09:34;9.90;;;4.90;;
58302;SDS011;44109;52.398;7.024;2023-09-12T12:12:08;10.55;;;5.43;;
58302;SDS011;44109;52.398;7.024;2023-09-12T12:14:38;8.65;;;4.45;;
58302;SDS011;44109;52.398;7.024;2023-09-12T12:17:07;10.98;;;5.53;;
58302;SDS011;44109;52.398;7.024;2023-09-12T12:19:36;10.23;;;5.43;;
58302;SDS011;44109;52.398;7.024;2023-09-12T12:22:04;8.35;;;5.03;;
58302;SDS011;44109;52.398;7.024;2023-09-12T12:24:36;9.27;;;4.95;;
58302;SDS011;44109;52.398;7.024;2023-09-12T12:27:06;8.23;;;4.90;;
58302;SDS011;44109;52.398;7.024;2023-09-12T12:29:36;10.27;;;4.70;;
58302;SDS011;44109;52.398;7.024;2023-09-12T12:32:05;10.40;;;5.90;;
58302;SDS011;44109;52.398;7.024;2023-09-12T12:34:35;7.95;;;4.50;;
58302;SDS011;44109;52.398;7.024;2023-09-12T12:37:04;8.98;;;4.47;;
58302;SDS011;44109;52.398;7.024;2023-09-12T12:39:31;8.80;;;5.32;;
58302;SDS011;44109;52.398;7.024;2023-09-12T12:42:00;8.85;;;4.95;;
58302;SDS011;44109;52.398;7.024;2023-09-12T12:44:33;12.00;;;6.40;;
58302;SDS011;44109;52.398;7.024;2023-09-12T12:47:06;13.68;;;7.57;;
58302;SDS011;44109;52.398;7.024;2023-09-12T12:49:36;9.38;;;5.60;;
58302;SDS011;44109;52.398;7.024;2023-09-12T12:52:05;9.10;;;4.93;;
58302;SDS011;44109;52.398;7.024;2023-09-12T12:54:36;8.77;;;4.90;;
58302;SDS011;44109;52.398;7.024;2023-09-12T12:57:04;8.82;;;4.43;;
58302;SDS011;44109;52.398;7.024;2023-09-12T12:59:31;7.75;;;4.47;;
58302;SDS011;44109;52.398;7.024;2023-09-12T13:02:02;8.00;;;4.60;;
58302;SDS011;44109;52.398;7.024;2023-09-12T13:04:34;7.35;;;3.78;;
58302;SDS011;44109;52.398;7.024;2023-09-12T13:07:04;6.15;;;3.60;;
58302;SDS011;44109;52.398;7.024;2023-09-12T13:09:32;6.88;;;3.63;;
58302;SDS011;44109;52.398;7.024;2023-09-12T13:11:59;6.43;;;4.18;;
58302;SDS011;44109;52.398;7.024;2023-09-12T13:14:27;8.38;;;4.22;;
58302;SDS011;44109;52.398;7.024;2023-09-12T13:16:58;7.90;;;4.32;;
58302;SDS011;44109;52.398;7.024;2023-09-12T13:19:26;6.82;;;4.03;;
58302;SDS011;44109;52.398;7.024;2023-09-12T13:21:54;8.45;;;4.57;;
58302;SDS011;44109;52.398;7.024;2023-09-12T13:24:21;7.88;;;3.65;;
58302;SDS011;44109;52.398;7.024;2023-09-12T13:26:50;5.68;;;4.15;;
58302;SDS011;44109;52.398;7.024;2023-09-12T13:29:18;7.78;;;4.93;;
58302;SDS011;44109;52.398;7.024;2023-09-12T13:31:46;7.05;;;3.92;;
58302;SDS011;44109;52.398;7.024;2023-09-12T13:34:15;7.65;;;4.90;;
58302;SDS011;44109;52.398;7.024;2023-09-12T13:36:44;8.18;;;4.13;;
58302;SDS011;44109;52.398;7.024;2023-09-12T13:39:11;8.70;;;5.00;;
58302;SDS011;44109;52.398;7.024;2023-09-12T13:41:39;6.68;;;3.88;;
58302;SDS011;44109;52.398;7.024;2023-09-12T13:44:07;7.25;;;3.92;;
58302;SDS011;44109;52.398;7.024;2023-09-12T13:46:34;6.85;;;3.70;;
58302;SDS011;44109;52.398;7.024;2023-09-12T13:49:02;8.50;;;3.70;;
58302;SDS011;44109;52.398;7.024;2023-09-12T13:51:31;7.82;;;3.75;;
58302;SDS011;44109;52.398;7.024;2023-09-12T13:53:59;6.15;;;3.35;;
58302;SDS011;44109;52.398;7.024;2023-09-12T13:56:26;5.45;;;3.28;;
58302;SDS011;44109;52.398;7.024;2023-09-12T13:58:54;5.07;;;2.97;;
58302;SDS011;44109;52.398;7.024;2023-09-12T14:01:21;5.97;;;3.22;;
58302;SDS011;44109;52.398;7.024;2023-09-12T14:03:49;5.13;;;3.03;;
58302;SDS011;44109;52.398;7.024;2023-09-12T14:06:19;4.78;;;2.72;;
58302;SDS011;44109;52.398;7.024;2023-09-12T14:08:48;4.38;;;2.15;;
58302;SDS011;44109;52.398;7.024;2023-09-12T14:11:15;5.13;;;2.67;;
58302;SDS011;44109;52.398;7.024;2023-09-12T14:13:43;4.40;;;2.50;;
58302;SDS011;44109;52.398;7.024;2023-09-12T14:16:11;5.75;;;2.75;;
58302;SDS011;44109;52.398;7.024;2023-09-12T14:18:38;4.88;;;2.75;;
58302;SDS011;44109;52.398;7.024;2023-09-12T14:21:06;4.30;;;3.22;;
58302;SDS011;44109;52.398;7.024;2023-09-12T14:23:34;6.97;;;2.90;;
58302;SDS011;44109;52.398;7.024;2023-09-12T14:26:03;4.45;;;2.90;;
58302;SDS011;44109;52.398;7.024;2023-09-12T14:28:30;6.40;;;2.92;;
58302;SDS011;44109;52.398;7.024;2023-09-12T14:31:00;3.92;;;2.50;;
58302;SDS011;44109;52.398;7.024;2023-09-12T14:33:30;5.07;;;2.95;;
58302;SDS011;44109;52.398;7.024;2023-09-12T14:35:57;4.28;;;2.45;;
58302;SDS011;44109;52.398;7.024;2023-09-12T14:38:27;5.60;;;3.33;;
58302;SDS011;44109;52.398;7.024;2023-09-12T14:40:54;4.53;;;2.60;;
58302;SDS011;44109;52.398;7.024;2023-09-12T14:43:23;4.63;;;2.30;;
58302;SDS011;44109;52.398;7.024;2023-09-12T14:45:53;7.35;;;3.22;;
58302;SDS011;44109;52.398;7.024;2023-09-12T14:48:21;6.40;;;3.45;;
58302;SDS011;44109;52.398;7.024;2023-09-12T14:50:49;8.13;;;4.03;;
58302;SDS011;44109;52.398;7.024;2023-09-12T14:53:18;6.68;;;3.30;;
58302;SDS011;44109;52.398;7.024;2023-09-12T14:55:46;4.85;;;2.65;;
58302;SDS011;44109;52.398;7.024;2023-09-12T14:58:13;4.72;;;3.03;;